Time;durP1;ratioP1;P1;durP2;ratioP2;P2;SDS_P1;SDS_P2;PMS_P1;PMS_P2;Temp;Humidity;BMP_temperature;BMP_pressure;BME280_temperature;BME280_humidity;BME280_pressure;Samples;Min_cycle;Max_cycle;Signal;HPM_P1;HPM_P2
2022/11/27 00:00:15;;;;;;;5.57;1.38;;;;;;;;;;5220739;28;20056;-73
2022/11/27 00:02:47;;;;;;;6.00;1.30;;;;;;;;;;5219288;28;20022;-73
2022/11/27 00:05:18;;;;;;;10.25;1.30;;;;;;;;;;5220595;28;20061;-74
2022/11/27 00:07:49;;;;;;;7.80;1.50;;;;;;;;;;5219115;28;20033;-73
2022/11/27 00:10:20;;;;;;;9.15;1.65;;;;;;;;;;5220234;28;20564;-73
2022/11/27 00:12:51;;;;;;;7.75;1.58;;;;;;;;;;5220156;28;20022;-73
2022/11/27 00:15:23;;;;;;;6.47;1.40;;;;;;;;;;5219592;28;20041;-74
2022/11/27 00:17:54;;;;;;;8.08;1.22;;;;;;;;;;5219047;28;20025;-73
2022/11/27 00:20:25;;;;;;;6.78;1.67;;;;;;;;;;5217365;28;20022;-74
2022/11/27 00:22:56;;;;;;;7.72;1.83;;;;;;;;;;5217017;28;20466;-73
2022/11/27 00:25:27;;;;;;;6.40;1.10;;;;;;;;;;5217988;28;20018;-75
2022/11/27 00:27:58;;;;;;;5.85;1.13;;;;;;;;;;5217848;28;20014;-73
2022/11/27 00:30:30;;;;;;;6.70;1.70;;;;;;;;;;5217126;28;20022;-73
2022/11/27 00:33:01;;;;;;;10.45;2.30;;;;;;;;;;5218137;28;20030;-73
2022/11/27 00:35:32;;;;;;;13.50;2.22;;;;;;;;;;5219132;28;20026;-74
2022/11/27 00:38:03;;;;;;;7.05;1.50;;;;;;;;;;5219649;28;20101;-74
2022/11/27 00:40:35;;;;;;;5.72;1.17;;;;;;;;;;5219867;28;20029;-74
2022/11/27 00:43:06;;;;;;;8.18;1.55;;;;;;;;;;5218530;28;20030;-74
2022/11/27 00:45:37;;;;;;;7.88;2.30;;;;;;;;;;5219925;28;20053;-73
2022/11/27 00:48:09;;;;;;;8.80;1.80;;;;;;;;;;5219838;28;20032;-73
2022/11/27 00:50:40;;;;;;;10.76;2.08;;;;;;;;;;5218825;28;20030;-74
2022/11/27 00:53:11;;;;;;;8.32;1.86;;;;;;;;;;5220024;28;20018;-74
2022/11/27 00:55:44;;;;;;;9.38;1.95;;;;;;;;;;5219485;28;20022;-75
2022/11/27 00:58:16;;;;;;;7.90;2.05;;;;;;;;;;5218996;28;20030;-74
2022/11/27 01:00:53;;;;;;;6.35;1.70;;;;;;;;;;5219240;28;20557;-73
2022/11/27 01:03:25;;;;;;;9.77;2.33;;;;;;;;;;5219628;28;20033;-74
2022/11/27 01:05:56;;;;;;;14.85;2.85;;;;;;;;;;5218809;28;20033;-73
2022/11/27 01:08:27;;;;;;;7.35;1.70;;;;;;;;;;5219660;28;20458;-74
2022/11/27 01:10:58;;;;;;;8.48;1.60;;;;;;;;;;5218835;28;20068;-73
2022/11/27 01:13:31;;;;;;;6.95;1.80;;;;;;;;;;5219556;28;20048;-73
2022/11/27 01:16:05;;;;;;;10.18;2.00;;;;;;;;;;5219523;28;20026;-74
2022/11/27 01:18:38;;;;;;;10.07;1.70;;;;;;;;;;5218607;28;20382;-74
2022/11/27 01:21:09;;;;;;;8.52;2.15;;;;;;;;;;5219693;28;20028;-75
2022/11/27 01:23:43;;;;;;;8.32;2.15;;;;;;;;;;5219104;28;20018;-74
2022/11/27 01:26:16;;;;;;;11.57;2.60;;;;;;;;;;5218627;28;20018;-74
2022/11/27 01:28:50;;;;;;;9.50;2.17;;;;;;;;;;5218885;28;20018;-74
2022/11/27 01:31:23;;;;;;;7.95;1.23;;;;;;;;;;5219420;28;20014;-73
2022/11/27 01:33:55;;;;;;;9.50;2.03;;;;;;;;;;5218382;28;20508;-73
2022/11/27 01:36:27;;;;;;;5.35;1.60;;;;;;;;;;5219269;28;20108;-74
2022/11/27 01:38:58;;;;;;;7.93;2.00;;;;;;;;;;5218353;28;20117;-74
2022/11/27 01:41:34;;;;;;;9.98;2.25;;;;;;;;;;5219408;28;20064;-74
2022/11/27 01:44:23;;;;;;;8.90;2.22;;;;;;;;;;5219317;28;20458;-75
2022/11/27 01:47:05;;;;;;;8.60;2.25;;;;;;;;;;5218357;28;20029;-74
2022/11/27 01:49:47;;;;;;;10.98;2.03;;;;;;;;;;5219096;28;20512;-73
2022/11/27 01:52:19;;;;;;;6.95;2.53;;;;;;;;;;5219412;28;20028;-74
2022/11/27 01:54:53;;;;;;;5.72;2.00;;;;;;;;;;5219571;28;20099;-73
2022/11/27 01:57:30;;;;;;;9.85;2.15;;;;;;;;;;5222902;28;20017;-73
2022/11/27 02:00:01;;;;;;;9.27;2.08;;;;;;;;;;5221886;28;20025;-73
2022/11/27 02:02:33;;;;;;;10.45;2.50;;;;;;;;;;5222968;28;20029;-74
2022/11/27 02:05:04;;;;;;;8.30;2.10;;;;;;;;;;5222857;28;20021;-74
2022/11/27 02:07:35;;;;;;;8.98;2.10;;;;;;;;;;5221933;28;20018;-73
2022/11/27 02:10:07;;;;;;;8.85;2.70;;;;;;;;;;5222621;28;20030;-74
2022/11/27 02:12:42;;;;;;;9.00;2.33;;;;;;;;;;5222557;28;20022;-74
2022/11/27 02:15:20;;;;;;;11.10;3.55;;;;;;;;;;5222090;28;20037;-74
2022/11/27 02:18:10;;;;;;;8.50;2.42;;;;;;;;;;5222634;28;20393;-74
2022/11/27 02:20:51;;;;;;;9.75;3.13;;;;;;;;;;5222099;28;20438;-74
2022/11/27 02:23:41;;;;;;;9.68;2.60;;;;;;;;;;5221854;28;20029;-74
2022/11/27 02:26:12;;;;;;;7.55;2.17;;;;;;;;;;5222591;28;20022;-74
2022/11/27 02:28:52;;;;;;;8.65;2.25;;;;;;;;;;5221261;28;20026;-74
2022/11/27 02:31:36;;;;;;;9.90;2.75;;;;;;;;;;5222481;28;20488;-74
2022/11/27 02:34:10;;;;;;;9.68;3.15;;;;;;;;;;5222123;28;20054;-74
2022/11/27 02:36:47;;;;;;;12.88;3.35;;;;;;;;;;5221022;28;20392;-74
2022/11/27 02:39:24;;;;;;;8.95;2.78;;;;;;;;;;5222230;28;20042;-74
2022/11/27 02:42:10;;;;;;;11.70;2.70;;;;;;;;;;5222297;28;20025;-74
2022/11/27 02:44:44;;;;;;;11.30;2.70;;;;;;;;;;5221754;28;20084;-74
2022/11/27 02:47:16;;;;;;;10.07;2.88;;;;;;;;;;5222272;28;20025;-73
2022/11/27 02:49:48;;;;;;;8.68;2.60;;;;;;;;;;5220765;28;20028;-74
2022/11/27 02:52:20;;;;;;;7.72;2.45;;;;;;;;;;5222477;28;20068;-73
2022/11/27 02:54:53;;;;;;;9.13;2.63;;;;;;;;;;5221677;28;20018;-73
2022/11/27 02:57:26;;;;;;;7.38;2.70;;;;;;;;;;5221168;28;20537;-74
2022/11/27 02:59:58;;;;;;;12.30;3.42;;;;;;;;;;5221679;28;20461;-75
2022/11/27 03:02:35;;;;;;;11.45;3.22;;;;;;;;;;5221585;28;20028;-74
2022/11/27 03:05:09;;;;;;;10.38;2.38;;;;;;;;;;5220894;28;20088;-74
2022/11/27 03:07:42;;;;;;;8.05;2.65;;;;;;;;;;5220535;28;20132;-74
2022/11/27 03:10:18;;;;;;;9.98;2.25;;;;;;;;;;5221383;28;20017;-74
2022/11/27 03:12:49;;;;;;;7.05;2.20;;;;;;;;;;5221026;28;20145;-74
2022/11/27 03:15:21;;;;;;;9.02;2.40;;;;;;;;;;5221545;28;20129;-76
2022/11/27 03:18:05;;;;;;;6.20;2.10;;;;;;;;;;5220719;28;20473;-73
2022/11/27 03:20:37;;;;;;;11.15;1.98;;;;;;;;;;5221473;28;20033;-73
2022/11/27 03:23:09;;;;;;;6.80;1.85;;;;;;;;;;5221058;28;20061;-75
2022/11/27 03:25:40;;;;;;;8.45;2.25;;;;;;;;;;5220391;28;20061;-74
2022/11/27 03:28:12;;;;;;;6.13;2.55;;;;;;;;;;5221415;28;20030;-74
2022/11/27 03:30:43;;;;;;;10.95;2.03;;;;;;;;;;5220803;28;20030;-73
2022/11/27 03:33:15;;;;;;;6.80;1.67;;;;;;;;;;5220680;28;20038;-74
2022/11/27 03:35:46;;;;;;;5.63;1.85;;;;;;;;;;5220632;28;20061;-74
2022/11/27 03:38:17;;;;;;;5.42;1.70;;;;;;;;;;5221348;28;20028;-74
2022/11/27 03:40:53;;;;;;;5.43;2.15;;;;;;;;;;5219734;28;20025;-75
2022/11/27 03:43:28;;;;;;;6.47;1.73;;;;;;;;;;5220825;28;20018;-74
2022/11/27 03:46:04;;;;;;;6.55;1.27;;;;;;;;;;5219782;28;20101;-74
2022/11/27 03:48:50;;;;;;;4.28;1.10;;;;;;;;;;5220756;28;20029;-74
2022/11/27 03:51:30;;;;;;;6.55;2.42;;;;;;;;;;5220687;28;20025;-74
2022/11/27 03:54:10;;;;;;;5.07;1.30;;;;;;;;;;5219524;28;20037;-73
2022/11/27 03:56:46;;;;;;;5.95;1.25;;;;;;;;;;5220335;28;20022;-74
2022/11/27 03:59:33;;;;;;;6.78;1.85;;;;;;;;;;5220967;28;20131;-74
2022/11/27 04:02:04;;;;;;;6.88;1.35;;;;;;;;;;5220559;28;20461;-73
2022/11/27 04:04:35;;;;;;;5.55;1.20;;;;;;;;;;5220448;28;20068;-73
2022/11/27 04:07:06;;;;;;;6.70;1.40;;;;;;;;;;5219677;28;20030;-73
2022/11/27 04:09:37;;;;;;;5.72;1.33;;;;;;;;;;5220646;28;20026;-74
2022/11/27 04:12:08;;;;;;;4.10;1.38;;;;;;;;;;5220597;28;20029;-74
2022/11/27 04:14:40;;;;;;;5.93;1.60;;;;;;;;;;5219237;28;20022;-73
2022/11/27 04:17:11;;;;;;;3.68;1.20;;;;;;;;;;5220527;28;20028;-74
2022/11/27 04:19:42;;;;;;;3.88;0.98;;;;;;;;;;5219756;28;20061;-74
2022/11/27 04:22:13;;;;;;;5.03;1.30;;;;;;;;;;5219634;28;20025;-74
2022/11/27 04:24:44;;;;;;;5.82;1.30;;;;;;;;;;5219843;28;20461;-74
2022/11/27 04:27:15;;;;;;;7.00;1.33;;;;;;;;;;5220408;28;20020;-74
2022/11/27 04:29:47;;;;;;;3.45;1.00;;;;;;;;;;5219001;28;20465;-74
2022/11/27 04:32:18;;;;;;;4.80;1.02;;;;;;;;;;5220501;28;20041;-74
2022/11/27 04:34:49;;;;;;;6.47;1.23;;;;;;;;;;5219119;28;20098;-74
2022/11/27 04:37:20;;;;;;;5.55;1.00;;;;;;;;;;5219983;28;20022;-74
2022/11/27 04:39:51;;;;;;;5.88;1.20;;;;;;;;;;5219860;28;20026;-74
2022/11/27 04:42:22;;;;;;;4.44;1.60;;;;;;;;;;5219093;28;20022;-74
2022/11/27 04:44:54;;;;;;;3.45;1.10;;;;;;;;;;5219720;28;20018;-74
2022/11/27 04:47:25;;;;;;;4.57;1.17;;;;;;;;;;5219929;28;20021;-74
2022/11/27 04:49:56;;;;;;;3.80;0.90;;;;;;;;;;5219455;28;20442;-74
2022/11/27 04:52:27;;;;;;;4.70;1.27;;;;;;;;;;5219783;28;20100;-74
2022/11/27 04:54:58;;;;;;;4.38;1.30;;;;;;;;;;5219630;28;20030;-74
2022/11/27 04:57:29;;;;;;;4.34;1.20;;;;;;;;;;5218924;28;20473;-74
2022/11/27 05:00:02;;;;;;;6.13;1.33;;;;;;;;;;5219454;28;20504;-74
2022/11/27 05:02:34;;;;;;;5.57;1.55;;;;;;;;;;5219655;28;20018;-74
2022/11/27 05:05:05;;;;;;;3.78;1.00;;;;;;;;;;5218740;28;20068;-74
2022/11/27 05:07:36;;;;;;;6.13;1.10;;;;;;;;;;5219518;28;20083;-74
2022/11/27 05:10:08;;;;;;;3.80;0.80;;;;;;;;;;5219011;28;20866;-75
2022/11/27 05:12:39;;;;;;;3.40;0.88;;;;;;;;;;5219219;28;20025;-75
2022/11/27 05:15:10;;;;;;;4.72;1.10;;;;;;;;;;5219829;28;20105;-74
2022/11/27 05:17:41;;;;;;;4.82;1.30;;;;;;;;;;5218253;28;20053;-74
2022/11/27 05:20:12;;;;;;;4.38;0.90;;;;;;;;;;5202256;28;20026;-74
2022/11/27 05:22:44;;;;;;;3.95;1.00;;;;;;;;;;5219304;28;20079;-74
2022/11/27 05:25:16;;;;;;;7.88;1.30;;;;;;;;;;5219003;28;20022;-74
2022/11/27 05:27:47;;;;;;;3.30;0.90;;;;;;;;;;5219102;28;20075;-74
2022/11/27 05:30:18;;;;;;;3.40;1.00;;;;;;;;;;5222109;28;20037;-74
2022/11/27 05:32:50;;;;;;;7.28;1.83;;;;;;;;;;5222347;28;20049;-74
2022/11/27 05:35:21;;;;;;;5.76;1.14;;;;;;;;;;5223548;28;20057;-74
2022/11/27 05:37:52;;;;;;;6.82;1.23;;;;;;;;;;5223236;28;20018;-73
2022/11/27 05:40:23;;;;;;;4.50;1.12;;;;;;;;;;5222448;28;20362;-74
2022/11/27 05:42:54;;;;;;;3.47;1.10;;;;;;;;;;5223084;28;20014;-74
2022/11/27 05:45:25;;;;;;;5.45;1.10;;;;;;;;;;5222509;28;20026;-74
2022/11/27 05:47:57;;;;;;;6.13;1.23;;;;;;;;;;5223260;28;20025;-74
2022/11/27 05:50:28;;;;;;;7.05;1.13;;;;;;;;;;5223111;28;20148;-74
2022/11/27 05:52:59;;;;;;;4.85;1.17;;;;;;;;;;5222244;28;20203;-73
2022/11/27 05:55:30;;;;;;;2.95;0.80;;;;;;;;;;5223039;28;20101;-74
2022/11/27 05:58:01;;;;;;;4.22;1.17;;;;;;;;;;5223073;28;20029;-73
2022/11/27 06:00:32;;;;;;;5.34;1.00;;;;;;;;;;5222150;28;20041;-74
2022/11/27 06:03:04;;;;;;;3.83;0.90;;;;;;;;;;5222763;28;20018;-74
2022/11/27 06:05:39;;;;;;;5.60;1.60;;;;;;;;;;5222747;28;20026;-74
2022/11/27 06:08:10;;;;;;;4.47;1.00;;;;;;;;;;5222423;28;20021;-74
2022/11/27 06:10:41;;;;;;;5.05;1.00;;;;;;;;;;5222598;28;20026;-74
2022/11/27 06:13:12;;;;;;;6.45;1.85;;;;;;;;;;5222357;28;20018;-74
2022/11/27 06:15:44;;;;;;;4.72;1.13;;;;;;;;;;5222239;28;20109;-74
2022/11/27 06:18:15;;;;;;;4.35;1.10;;;;;;;;;;5222709;28;20020;-74
2022/11/27 06:20:46;;;;;;;3.86;0.88;;;;;;;;;;5221783;28;20109;-74
2022/11/27 06:23:17;;;;;;;3.35;0.80;;;;;;;;;;5222909;28;20048;-74
2022/11/27 06:25:48;;;;;;;5.20;1.00;;;;;;;;;;5222278;28;20049;-74
2022/11/27 06:28:19;;;;;;;4.47;1.00;;;;;;;;;;5221822;28;20026;-74
2022/11/27 06:30:51;;;;;;;5.10;0.90;;;;;;;;;;5222047;28;20045;-74
2022/11/27 06:33:22;;;;;;;4.80;0.80;;;;;;;;;;5222156;28;20057;-73
2022/11/27 06:35:54;;;;;;;3.03;1.17;;;;;;;;;;5221833;28;20022;-74
2022/11/27 06:38:25;;;;;;;4.60;1.15;;;;;;;;;;5222321;28;20064;-74
2022/11/27 06:41:00;;;;;;;4.32;1.17;;;;;;;;;;5221204;28;20045;-75
2022/11/27 06:43:32;;;;;;;4.63;0.85;;;;;;;;;;5221693;28;20013;-74
2022/11/27 06:46:04;;;;;;;4.18;0.90;;;;;;;;;;5222062;28;20018;-74
2022/11/27 06:48:35;;;;;;;2.78;0.80;;;;;;;;;;5221449;28;20549;-74
2022/11/27 06:51:06;;;;;;;5.68;1.70;;;;;;;;;;5222192;28;20018;-74
2022/11/27 06:53:39;;;;;;;5.03;1.00;;;;;;;;;;5221869;28;20481;-72
2022/11/27 06:56:11;;;;;;;3.13;0.90;;;;;;;;;;5222260;28;20028;-72
2022/11/27 06:58:43;;;;;;;3.72;0.95;;;;;;;;;;5221761;28;20030;-74
2022/11/27 07:01:15;;;;;;;5.25;1.02;;;;;;;;;;5222244;28;20366;-73
2022/11/27 07:03:46;;;;;;;4.43;0.85;;;;;;;;;;5220710;28;20420;-74
2022/11/27 07:06:24;;;;;;;9.07;2.97;;;;;;;;;;5222395;28;20026;-75
2022/11/27 07:08:55;;;;;;;5.60;1.83;;;;;;;;;;5221891;28;20021;-75
2022/11/27 07:11:28;;;;;;;6.00;2.13;;;;;;;;;;5221202;28;20030;-74
2022/11/27 07:14:01;;;;;;;5.53;1.38;;;;;;;;;;5221764;28;20496;-74
2022/11/27 07:16:33;;;;;;;4.30;1.67;;;;;;;;;;5203232;28;20022;-75
2022/11/27 07:19:06;;;;;;;5.97;1.75;;;;;;;;;;5221323;28;20373;-74
2022/11/27 07:21:37;;;;;;;4.63;1.38;;;;;;;;;;5221406;28;20548;-74
2022/11/27 07:24:08;;;;;;;6.65;1.25;;;;;;;;;;5220242;28;20018;-74
2022/11/27 07:26:40;;;;;;;2.50;1.10;;;;;;;;;;5220828;28;20029;-75
2022/11/27 07:29:11;;;;;;;2.97;1.30;;;;;;;;;;5221228;28;20021;-75
2022/11/27 07:31:42;;;;;;;4.13;1.20;;;;;;;;;;5220231;28;20475;-73
2022/11/27 07:34:14;;;;;;;5.82;1.30;;;;;;;;;;5221120;28;20490;-74
2022/11/27 07:36:46;;;;;;;4.03;1.38;;;;;;;;;;5220713;28;20014;-74
2022/11/27 07:39:17;;;;;;;5.38;1.15;;;;;;;;;;5220306;28;20037;-74
2022/11/27 07:41:48;;;;;;;5.03;1.60;;;;;;;;;;5220768;28;20041;-74
2022/11/27 07:44:19;;;;;;;6.07;1.65;;;;;;;;;;5220862;28;20397;-73
2022/11/27 07:46:50;;;;;;;6.88;1.60;;;;;;;;;;5220743;28;20022;-75
2022/11/27 07:49:22;;;;;;;4.93;1.63;;;;;;;;;;5220802;28;20025;-73
2022/11/27 07:51:53;;;;;;;4.18;1.42;;;;;;;;;;5219693;28;20037;-76
2022/11/27 07:54:24;;;;;;;4.30;1.60;;;;;;;;;;5220906;28;20064;-74
2022/11/27 07:56:55;;;;;;;5.30;1.70;;;;;;;;;;5220428;28;20022;-74
2022/11/27 07:59:26;;;;;;;4.00;1.48;;;;;;;;;;5219914;28;20038;-74
2022/11/27 08:01:58;;;;;;;4.63;1.70;;;;;;;;;;5220513;28;20025;-74
2022/11/27 08:04:29;;;;;;;5.42;1.70;;;;;;;;;;5220537;28;20030;-74
2022/11/27 08:07:00;;;;;;;4.13;1.50;;;;;;;;;;5219588;28;20021;-74
2022/11/27 08:09:31;;;;;;;4.75;2.92;;;;;;;;;;5220572;28;20022;-73
2022/11/27 08:12:03;;;;;;;6.10;2.08;;;;;;;;;;5220423;28;20028;-74
2022/11/27 08:14:34;;;;;;;6.60;2.35;;;;;;;;;;5219647;28;20026;-75
2022/11/27 08:17:05;;;;;;;7.40;2.10;;;;;;;;;;5220211;28;20033;-74
2022/11/27 08:19:36;;;;;;;6.13;1.52;;;;;;;;;;5220332;28;20108;-75
2022/11/27 08:22:11;;;;;;;5.68;2.05;;;;;;;;;;5219409;28;20022;-73
2022/11/27 08:24:42;;;;;;;5.00;1.95;;;;;;;;;;5220021;28;20117;-74
2022/11/27 08:27:15;;;;;;;6.78;2.00;;;;;;;;;;5219585;28;20145;-73
2022/11/27 08:29:46;;;;;;;5.32;2.08;;;;;;;;;;5219728;28;20105;-73
2022/11/27 08:32:17;;;;;;;6.32;2.20;;;;;;;;;;5220245;28;20481;-74
2022/11/27 08:34:48;;;;;;;7.18;2.10;;;;;;;;;;5218894;28;20045;-73
2022/11/27 08:37:20;;;;;;;6.22;2.00;;;;;;;;;;5220292;28;20033;-75
2022/11/27 08:39:52;;;;;;;4.88;2.05;;;;;;;;;;5219847;28;20033;-74
2022/11/27 08:42:23;;;;;;;5.47;2.00;;;;;;;;;;5219349;28;20020;-74
2022/11/27 08:44:55;;;;;;;4.95;1.88;;;;;;;;;;5219910;28;20084;-73
2022/11/27 08:47:26;;;;;;;5.38;2.00;;;;;;;;;;5219919;28;20404;-75
2022/11/27 08:49:58;;;;;;;5.65;2.30;;;;;;;;;;5218788;28;20060;-73
2022/11/27 08:52:29;;;;;;;7.63;2.90;;;;;;;;;;5219745;28;20366;-74
2022/11/27 08:55:00;;;;;;;7.55;3.03;;;;;;;;;;5218941;28;20026;-75
2022/11/27 08:57:31;;;;;;;5.65;2.10;;;;;;;;;;5220011;28;20381;-74
2022/11/27 09:00:03;;;;;;;8.60;2.92;;;;;;;;;;5219529;28;20367;-73
2022/11/27 09:02:34;;;;;;;6.93;2.67;;;;;;;;;;5218814;28;20024;-74
2022/11/27 09:05:06;;;;;;;5.60;2.47;;;;;;;;;;5218781;28;20025;-73
2022/11/27 09:07:37;;;;;;;5.18;2.28;;;;;;;;;;5219931;28;20526;-73
2022/11/27 09:10:09;;;;;;;5.20;2.38;;;;;;;;;;5218912;28;20021;-74
2022/11/27 09:12:40;;;;;;;8.90;3.10;;;;;;;;;;5219203;28;20034;-75
2022/11/27 09:15:12;;;;;;;7.30;3.80;;;;;;;;;;5219816;28;20026;-74
2022/11/27 09:17:43;;;;;;;6.97;3.00;;;;;;;;;;5218717;28;20028;-74
2022/11/27 09:20:14;;;;;;;6.03;3.13;;;;;;;;;;5219775;28;20049;-73
2022/11/27 09:22:46;;;;;;;5.35;2.70;;;;;;;;;;5219173;28;20020;-74
2022/11/27 09:25:17;;;;;;;5.84;2.98;;;;;;;;;;5218962;28;20026;-73
2022/11/27 09:27:48;;;;;;;4.82;2.97;;;;;;;;;;5214446;28;20022;-73
2022/11/27 09:30:19;;;;;;;4.88;2.90;;;;;;;;;;5218583;28;20037;-73
2022/11/27 09:32:51;;;;;;;4.68;3.03;;;;;;;;;;5218756;28;20038;-74
2022/11/27 09:35:22;;;;;;;8.05;3.53;;;;;;;;;;5219067;28;20400;-73
2022/11/27 09:37:53;;;;;;;6.88;3.30;;;;;;;;;;5218116;28;20453;-74
2022/11/27 09:40:24;;;;;;;6.10;3.33;;;;;;;;;;5219853;28;20064;-75
2022/11/27 09:42:58;;;;;;;5.95;3.05;;;;;;;;;;5219698;28;20022;-74
2022/11/27 09:45:30;;;;;;;6.53;2.97;;;;;;;;;;5218188;28;20072;-73
2022/11/27 09:48:03;;;;;;;5.60;2.78;;;;;;;;;;5219027;28;20057;-75
2022/11/27 09:50:39;;;;;;;7.10;3.95;;;;;;;;;;5218326;28;20030;-74
2022/11/27 09:53:16;;;;;;;6.03;3.47;;;;;;;;;;5216859;28;20113;-77
2022/11/27 09:55:48;;;;;;;5.85;3.90;;;;;;;;;;5231048;28;20029;-74
2022/11/27 09:58:29;;;;;;;5.78;3.13;;;;;;;;;;5238530;28;20010;-73
2022/11/27 10:01:08;;;;;;;6.10;3.50;;;;;;;;;;5239222;28;20105;-74
2022/11/27 10:03:41;;;;;;;6.88;3.50;;;;;;;;;;5239336;28;20477;-74
2022/11/27 10:06:22;;;;;;;6.60;3.58;;;;;;;;;;5206440;28;20014;-74
2022/11/27 10:09:15;;;;;;;6.00;3.55;;;;;;;;;;5217164;28;20029;-74
2022/11/27 10:11:52;;;;;;;6.60;4.03;;;;;;;;;;5215506;28;20053;-74
2022/11/27 10:14:26;;;;;;;5.78;4.15;;;;;;;;;;5215848;28;20034;-74
2022/11/27 10:17:16;;;;;;;6.20;3.72;;;;;;;;;;5221080;28;20244;-74
2022/11/27 10:19:53;;;;;;;7.13;3.83;;;;;;;;;;5236498;28;20116;-74
2022/11/27 10:22:43;;;;;;;6.00;3.13;;;;;;;;;;5242217;28;20141;-74
2022/11/27 10:25:25;;;;;;;5.72;3.50;;;;;;;;;;5242219;28;20469;-73
2022/11/27 10:28:13;;;;;;;7.18;3.55;;;;;;;;;;5240720;28;20033;-74
2022/11/27 10:30:59;;;;;;;4.60;3.65;;;;;;;;;;5242777;28;20468;-73
2022/11/27 10:33:40;;;;;;;5.75;4.07;;;;;;;;;;5241832;28;20053;-77
2022/11/27 10:36:13;;;;;;;7.35;3.53;;;;;;;;;;5243245;28;20024;-75
2022/11/27 10:38:46;;;;;;;6.55;4.28;;;;;;;;;;5242392;28;20026;-73
2022/11/27 10:41:28;;;;;;;7.15;3.78;;;;;;;;;;5242171;28;20111;-75
2022/11/27 10:44:04;;;;;;;7.40;4.03;;;;;;;;;;5242282;28;20045;-73
2022/11/27 10:46:36;;;;;;;5.38;3.58;;;;;;;;;;5242699;28;20029;-77
2022/11/27 10:49:08;;;;;;;5.55;3.83;;;;;;;;;;5241985;28;20033;-75
2022/11/27 10:51:40;;;;;;;8.13;5.32;;;;;;;;;;5242335;28;20014;-74
2022/11/27 10:54:16;;;;;;;8.57;5.53;;;;;;;;;;5243080;28;20025;-75
2022/11/27 10:56:57;;;;;;;8.40;3.97;;;;;;;;;;5241436;28;20056;-75
2022/11/27 10:59:34;;;;;;;7.95;3.72;;;;;;;;;;5242436;28;20037;-74
2022/11/27 11:02:23;;;;;;;5.82;3.38;;;;;;;;;;5241876;28;20060;-75
2022/11/27 11:04:54;;;;;;;5.93;3.85;;;;;;;;;;5242564;28;20381;-75
2022/11/27 11:07:27;;;;;;;6.40;4.18;;;;;;;;;;5242641;28;20056;-76
2022/11/27 11:09:58;;;;;;;8.63;4.18;;;;;;;;;;5241595;28;20128;-74
2022/11/27 11:12:30;;;;;;;5.57;3.67;;;;;;;;;;5242379;28;20385;-74
2022/11/27 11:15:09;;;;;;;6.38;3.83;;;;;;;;;;5241909;28;20443;-74
2022/11/27 11:17:40;;;;;;;6.53;3.58;;;;;;;;;;5241355;28;20151;-74
2022/11/27 11:20:22;;;;;;;6.85;3.60;;;;;;;;;;5242177;28;20033;-73
2022/11/27 11:22:53;;;;;;;6.45;3.42;;;;;;;;;;5241454;28;20017;-74
2022/11/27 11:25:24;;;;;;;5.22;3.47;;;;;;;;;;5241920;28;20025;-74
2022/11/27 11:27:55;;;;;;;4.53;2.90;;;;;;;;;;5241341;28;20067;-74
2022/11/27 11:30:28;;;;;;;6.32;3.88;;;;;;;;;;5241070;28;20021;-75
2022/11/27 11:33:01;;;;;;;6.00;3.67;;;;;;;;;;5238331;28;20083;-74
2022/11/27 11:35:35;;;;;;;5.80;3.10;;;;;;;;;;5221770;28;20036;-74
2022/11/27 11:38:14;;;;;;;8.57;3.90;;;;;;;;;;5223602;28;20108;-73
2022/11/27 11:41:08;;;;;;;5.07;3.13;;;;;;;;;;5221588;28;20034;-74
2022/11/27 11:43:40;;;;;;;6.35;3.83;;;;;;;;;;5220468;28;20095;-73
2022/11/27 11:46:21;;;;;;;6.45;3.72;;;;;;;;;;5221168;28;20555;-73
2022/11/27 11:48:59;;;;;;;5.78;3.42;;;;;;;;;;5221145;28;20029;-73
2022/11/27 11:51:52;;;;;;;5.72;4.00;;;;;;;;;;5219922;28;20189;-73
2022/11/27 11:54:26;;;;;;;8.35;4.15;;;;;;;;;;5220328;28;20018;-75
2022/11/27 11:56:58;;;;;;;5.90;3.40;;;;;;;;;;5220036;28;20022;-73
2022/11/27 12:00:09;;;;;;;6.18;4.50;;;;;;;;;;5218979;28;20022;-74
2022/11/27 12:03:03;;;;;;;6.15;3.60;;;;;;;;;;5117218;29;20471;-72
2022/11/27 12:05:55;;;;;;;7.38;4.32;;;;;;;;;;5109339;29;20032;-74
2022/11/27 12:08:40;;;;;;;7.82;3.25;;;;;;;;;;5204634;28;20065;-72
2022/11/27 12:11:17;;;;;;;4.30;3.47;;;;;;;;;;5218652;28;20014;-72
2022/11/27 12:13:59;;;;;;;7.05;3.60;;;;;;;;;;5216992;28;20076;-72
2022/11/27 12:16:47;;;;;;;6.22;3.40;;;;;;;;;;5218140;28;20108;-72
2022/11/27 12:19:30;;;;;;;5.78;4.05;;;;;;;;;;5217919;28;20022;-72
2022/11/27 12:22:14;;;;;;;5.30;3.28;;;;;;;;;;5218367;28;20022;-72
2022/11/27 12:24:46;;;;;;;10.60;4.47;;;;;;;;;;5218296;28;20022;-72
2022/11/27 12:27:32;;;;;;;6.82;3.83;;;;;;;;;;5219605;28;20414;-73
2022/11/27 12:30:12;;;;;;;4.25;3.28;;;;;;;;;;5219929;28;20268;-72
2022/11/27 12:32:52;;;;;;;7.40;3.75;;;;;;;;;;5219386;28;20397;-72
2022/11/27 12:35:33;;;;;;;5.32;3.30;;;;;;;;;;5219134;28;20116;-72
2022/11/27 12:38:19;;;;;;;4.40;2.88;;;;;;;;;;5219687;28;20512;-72
2022/11/27 12:41:12;;;;;;;5.03;3.13;;;;;;;;;;5218296;28;20045;-73
2022/11/27 12:43:49;;;;;;;5.50;3.38;;;;;;;;;;5219291;28;20018;-72
2022/11/27 12:46:23;;;;;;;5.43;3.17;;;;;;;;;;5220134;28;20489;-72
2022/11/27 12:48:56;;;;;;;4.50;3.13;;;;;;;;;;5218884;28;20022;-72
2022/11/27 12:51:37;;;;;;;5.38;3.35;;;;;;;;;;5219727;28;20476;-72
2022/11/27 12:54:14;;;;;;;6.32;3.80;;;;;;;;;;5218682;28;20053;-72
2022/11/27 12:56:49;;;;;;;5.30;3.20;;;;;;;;;;5219303;28;20034;-72
2022/11/27 12:59:32;;;;;;;5.70;3.40;;;;;;;;;;5219919;28;20394;-73
2022/11/27 13:02:23;;;;;;;6.00;3.55;;;;;;;;;;5217657;28;20034;-74
2022/11/27 13:05:06;;;;;;;6.25;3.20;;;;;;;;;;5219630;28;20474;-73
2022/11/27 13:07:55;;;;;;;5.10;2.90;;;;;;;;;;5219454;28;20038;-72
2022/11/27 13:10:29;;;;;;;5.20;3.08;;;;;;;;;;5218672;28;20503;-73
2022/11/27 13:13:19;;;;;;;7.43;3.92;;;;;;;;;;5219461;28;20541;-73
2022/11/27 13:16:02;;;;;;;4.75;3.63;;;;;;;;;;5218622;28;20481;-74
2022/11/27 13:18:38;;;;;;;5.72;4.18;;;;;;;;;;5219380;28;20164;-73
2022/11/27 13:21:17;;;;;;;6.05;3.63;;;;;;;;;;5219474;28;20481;-73
2022/11/27 13:23:49;;;;;;;5.43;3.37;;;;;;;;;;5218129;28;20113;-72
2022/11/27 13:26:32;;;;;;;4.80;3.60;;;;;;;;;;5219482;28;20359;-73
2022/11/27 13:29:20;;;;;;;5.70;4.10;;;;;;;;;;5219013;28;20022;-72
2022/11/27 13:31:54;;;;;;;4.50;3.83;;;;;;;;;;5219368;28;20029;-72
2022/11/27 13:34:26;;;;;;;5.78;3.47;;;;;;;;;;5218959;28;20069;-73
2022/11/27 13:37:07;;;;;;;6.00;3.88;;;;;;;;;;5218494;28;20069;-73
2022/11/27 13:39:40;;;;;;;4.97;4.05;;;;;;;;;;5221056;28;20026;-74
2022/11/27 13:42:14;;;;;;;6.45;4.03;;;;;;;;;;5221917;28;20014;-74
2022/11/27 13:44:53;;;;;;;5.35;4.13;;;;;;;;;;5218262;28;20052;-73
2022/11/27 13:47:26;;;;;;;8.43;3.88;;;;;;;;;;5218733;28;20041;-73
2022/11/27 13:50:00;;;;;;;5.53;3.88;;;;;;;;;;5219105;28;20367;-73
2022/11/27 13:52:31;;;;;;;6.93;4.60;;;;;;;;;;5221765;28;20108;-74
2022/11/27 13:55:07;;;;;;;5.25;4.45;;;;;;;;;;5222707;28;20100;-73
2022/11/27 13:57:50;;;;;;;6.20;4.90;;;;;;;;;;5221847;28;20030;-74
2022/11/27 14:00:34;;;;;;;6.85;4.40;;;;;;;;;;5218702;28;20041;-74
2022/11/27 14:03:09;;;;;;;5.82;4.85;;;;;;;;;;5222626;28;20018;-74
2022/11/27 14:05:41;;;;;;;7.25;5.00;;;;;;;;;;5221224;28;20401;-73
2022/11/27 14:08:32;;;;;;;5.43;4.35;;;;;;;;;;5222950;28;20030;-76
2022/11/27 14:11:10;;;;;;;5.65;4.85;;;;;;;;;;5222236;28;20029;-75
2022/11/27 14:13:47;;;;;;;6.05;4.78;;;;;;;;;;5221068;28;20062;-74
2022/11/27 14:16:23;;;;;;;6.75;4.35;;;;;;;;;;5222358;28;20022;-74
2022/11/27 14:18:58;;;;;;;7.45;5.10;;;;;;;;;;5221619;28;20021;-74
2022/11/27 14:21:30;;;;;;;6.93;5.30;;;;;;;;;;5222253;28;20025;-74
2022/11/27 14:24:05;;;;;;;7.07;6.10;;;;;;;;;;5222338;28;20362;-74
2022/11/27 14:26:39;;;;;;;7.10;5.25;;;;;;;;;;5221624;28;20373;-74
2022/11/27 14:29:10;;;;;;;6.25;5.07;;;;;;;;;;5222547;28;20025;-74
2022/11/27 14:31:42;;;;;;;9.70;6.28;;;;;;;;;;5221809;28;20022;-74
2022/11/27 14:34:25;;;;;;;7.88;6.25;;;;;;;;;;5221369;28;20115;-74
2022/11/27 14:36:57;;;;;;;8.55;6.25;;;;;;;;;;5221869;28;20033;-74
2022/11/27 14:39:35;;;;;;;9.02;6.00;;;;;;;;;;5221865;28;20025;-74
2022/11/27 14:42:17;;;;;;;8.93;6.03;;;;;;;;;;5221888;28;20050;-73
2022/11/27 14:44:59;;;;;;;9.25;5.85;;;;;;;;;;5221691;28;20061;-74
2022/11/27 14:47:30;;;;;;;6.25;4.93;;;;;;;;;;5221095;28;20014;-74
2022/11/27 14:50:02;;;;;;;7.68;5.30;;;;;;;;;;5221614;28;20020;-74
2022/11/27 14:52:34;;;;;;;7.43;5.43;;;;;;;;;;5221354;28;20466;-73
2022/11/27 14:55:11;;;;;;;6.25;4.53;;;;;;;;;;5220746;28;20355;-73
2022/11/27 14:57:44;;;;;;;6.32;5.32;;;;;;;;;;5221297;28;20033;-74
2022/11/27 15:00:18;;;;;;;7.00;5.15;;;;;;;;;;5222013;28;20034;-73
2022/11/27 15:02:49;;;;;;;6.15;5.20;;;;;;;;;;5219612;28;20050;-74
2022/11/27 15:05:23;;;;;;;8.00;5.80;;;;;;;;;;5221305;28;20073;-74
2022/11/27 15:07:56;;;;;;;9.55;5.70;;;;;;;;;;5220694;28;20041;-74
2022/11/27 15:10:34;;;;;;;8.07;6.13;;;;;;;;;;5221252;28;20018;-74
2022/11/27 15:13:07;;;;;;;6.85;5.53;;;;;;;;;;5221434;28;20018;-74
2022/11/27 15:15:40;;;;;;;8.52;5.05;;;;;;;;;;5220508;28;20018;-73
2022/11/27 15:18:19;;;;;;;8.25;5.15;;;;;;;;;;5221784;28;20365;-74
2022/11/27 15:20:51;;;;;;;8.30;5.65;;;;;;;;;;5220749;28;20034;-73
2022/11/27 15:23:24;;;;;;;7.03;4.80;;;;;;;;;;5220191;28;20033;-74
2022/11/27 15:25:58;;;;;;;7.15;4.90;;;;;;;;;;5220971;28;20022;-74